sensor_id;sensor_type;location;lat;lon;timestamp;pressure;altitude;pressure_sealevel;temperature;humidity
35806;BME280;21925;44.608;11.580;2022-11-11T00:00:43;103242.09;;;14.68;100.00
35806;BME280;21925;44.608;11.580;2022-11-11T00:03:42;103289.59;;;15.00;100.00
35806;BME280;21925;44.608;11.580;2022-11-11T00:06:28;103293.81;;;14.98;100.00
35806;BME280;21925;44.608;11.580;2022-11-11T00:09:14;103290.06;;;14.94;100.00
35806;BME280;21925;44.608;11.580;2022-11-11T00:11:59;103267.69;;;14.82;100.00
35806;BME280;21925;44.608;11.580;2022-11-11T00:14:45;103299.19;;;15.03;100.00
35806;BME280;21925;44.608;11.580;2022-11-11T00:17:48;103298.06;;;15.04;100.00
35806;BME280;21925;44.608;11.580;2022-11-11T00:20:52;103295.81;;;15.06;100.00
35806;BME280;21925;44.608;11.580;2022-11-11T00:27:48;103281.44;;;14.95;100.00
35806;BME280;21925;44.608;11.580;2022-11-11T00:30:34;103307.72;;;15.14;100.00
35806;BME280;21925;44.608;11.580;2022-11-11T00:33:29;103288.25;;;15.19;100.00
35806;BME280;21925;44.608;11.580;2022-11-11T00:36:13;103304.09;;;15.27;100.00
35806;BME280;21925;44.608;11.580;2022-11-11T00:38:58;103297.00;;;15.43;100.00
35806;BME280;21925;44.608;11.580;2022-11-11T00:41:47;103301.97;;;15.24;100.00
35806;BME280;21925;44.608;11.580;2022-11-11T00:44:32;103287.88;;;15.13;100.00
35806;BME280;21925;44.608;11.580;2022-11-11T00:47:21;103285.88;;;15.05;100.00
35806;BME280;21925;44.608;11.580;2022-11-11T00:50:29;103289.16;;;15.07;100.00
35806;BME280;21925;44.608;11.580;2022-11-11T00:53:33;103296.44;;;15.03;100.00
35806;BME280;21925;44.608;11.580;2022-11-11T00:56:27;103294.94;;;14.97;100.00
35806;BME280;21925;44.608;11.580;2022-11-11T00:59:15;103249.13;;;14.74;100.00
35806;BME280;21925;44.608;11.580;2022-11-11T01:02:37;103304.44;;;15.04;100.00
35806;BME280;21925;44.608;11.580;2022-11-11T01:05:22;103294.31;;;15.00;100.00
35806;BME280;21925;44.608;11.580;2022-11-11T01:08:23;103291.75;;;15.03;100.00
35806;BME280;21925;44.608;11.580;2022-11-11T01:11:13;103302.56;;;15.21;100.00
35806;BME280;21925;44.608;11.580;2022-11-11T01:14:01;103265.56;;;15.01;100.00
35806;BME280;21925;44.608;11.580;2022-11-11T01:16:49;103299.56;;;15.31;100.00
35806;BME280;21925;44.608;11.580;2022-11-11T01:19:36;103281.06;;;15.18;100.00
35806;BME280;21925;44.608;11.580;2022-11-11T01:22:28;103300.75;;;15.17;100.00
35806;BME280;21925;44.608;11.580;2022-11-11T01:25:42;103289.16;;;15.07;100.00
35806;BME280;21925;44.608;11.580;2022-11-11T01:28:28;103296.00;;;15.09;100.00
35806;BME280;21925;44.608;11.580;2022-11-11T01:31:26;103295.94;;;15.01;100.00
35806;BME280;21925;44.608;11.580;2022-11-11T01:34:19;103268.03;;;14.80;100.00
35806;BME280;21925;44.608;11.580;2022-11-11T01:37:20;103265.50;;;14.70;100.00
35806;BME280;21925;44.608;11.580;2022-11-11T01:40:06;103252.03;;;14.69;100.00
35806;BME280;21925;44.608;11.580;2022-11-11T01:45:58;103295.84;;;14.84;100.00
35806;BME280;21925;44.608;11.580;2022-11-11T01:48:47;103304.81;;;14.89;100.00
35806;BME280;21925;44.608;11.580;2022-11-11T01:52:12;103305.63;;;14.90;100.00
35806;BME280;21925;44.608;11.580;2022-11-11T01:55:12;103301.22;;;14.89;100.00
35806;BME280;21925;44.608;11.580;2022-11-11T01:58:05;103302.53;;;14.91;100.00
35806;BME280;21925;44.608;11.580;2022-11-11T02:00:56;103306.75;;;14.89;100.00
35806;BME280;21925;44.608;11.580;2022-11-11T02:03:42;103295.00;;;14.83;100.00
35806;BME280;21925;44.608;11.580;2022-11-11T02:06:55;103311.50;;;14.97;100.00
35806;BME280;21925;44.608;11.580;2022-11-11T02:09:44;103315.72;;;14.94;100.00
35806;BME280;21925;44.608;11.580;2022-11-11T02:12:34;103264.31;;;14.63;100.00
35806;BME280;21925;44.608;11.580;2022-11-11T02:15:37;103327.16;;;15.01;100.00
35806;BME280;21925;44.608;11.580;2022-11-11T02:18:22;103319.69;;;15.02;100.00
35806;BME280;21925;44.608;11.580;2022-11-11T02:21:39;103334.06;;;15.12;100.00
35806;BME280;21925;44.608;11.580;2022-11-11T02:24:28;103339.44;;;15.17;100.00
35806;BME280;21925;44.608;11.580;2022-11-11T02:27:21;103333.72;;;15.13;100.00
35806;BME280;21925;44.608;11.580;2022-11-11T02:30:09;103336.56;;;15.22;100.00
35806;BME280;21925;44.608;11.580;2022-11-11T02:33:05;103339.03;;;15.23;100.00
35806;BME280;21925;44.608;11.580;2022-11-11T02:35:52;103336.34;;;15.18;100.00
35806;BME280;21925;44.608;11.580;2022-11-11T02:38:40;103319.41;;;15.12;100.00
35806;BME280;21925;44.608;11.580;2022-11-11T02:41:25;103316.53;;;15.16;100.00
35806;BME280;21925;44.608;11.580;2022-11-11T02:44:31;103320.25;;;15.12;100.00
35806;BME280;21925;44.608;11.580;2022-11-11T02:47:43;103279.25;;;14.84;100.00
35806;BME280;21925;44.608;11.580;2022-11-11T02:50:38;103315.06;;;15.19;100.00
35806;BME280;21925;44.608;11.580;2022-11-11T02:53:53;103314.25;;;15.18;100.00
35806;BME280;21925;44.608;11.580;2022-11-11T02:56:45;103307.88;;;15.10;100.00
35806;BME280;21925;44.608;11.580;2022-11-11T02:59:49;103303.28;;;15.05;100.00
35806;BME280;21925;44.608;11.580;2022-11-11T03:02:45;103279.25;;;14.84;100.00
35806;BME280;21925;44.608;11.580;2022-11-11T03:05:32;103310.25;;;15.03;100.00
35806;BME280;21925;44.608;11.580;2022-11-11T03:08:17;103275.25;;;14.68;100.00
35806;BME280;21925;44.608;11.580;2022-11-11T03:11:07;103312.16;;;14.94;100.00
35806;BME280;21925;44.608;11.580;2022-11-11T03:13:59;103328.97;;;15.06;100.00
35806;BME280;21925;44.608;11.580;2022-11-11T03:16:51;103318.31;;;14.91;100.00
35806;BME280;21925;44.608;11.580;2022-11-11T03:20:16;103315.16;;;14.84;100.00
35806;BME280;21925;44.608;11.580;2022-11-11T03:23:22;103318.97;;;14.74;100.00
35806;BME280;21925;44.608;11.580;2022-11-11T03:26:13;103325.56;;;14.65;100.00
35806;BME280;21925;44.608;11.580;2022-11-11T03:29:21;103333.25;;;14.68;100.00
35806;BME280;21925;44.608;11.580;2022-11-11T03:32:07;103328.09;;;14.75;100.00
35806;BME280;21925;44.608;11.580;2022-11-11T03:34:52;103318.59;;;14.67;100.00
35806;BME280;21925;44.608;11.580;2022-11-11T03:37:36;103279.22;;;14.40;100.00
35806;BME280;21925;44.608;11.580;2022-11-11T03:41:05;103337.72;;;14.42;100.00
35806;BME280;21925;44.608;11.580;2022-11-11T03:43:56;103326.88;;;14.32;100.00
35806;BME280;21925;44.608;11.580;2022-11-11T03:46:41;103324.78;;;14.16;100.00
35806;BME280;21925;44.608;11.580;2022-11-11T03:49:35;103314.66;;;13.98;100.00
35806;BME280;21925;44.608;11.580;2022-11-11T03:52:22;103327.00;;;14.00;100.00
35806;BME280;21925;44.608;11.580;2022-11-11T03:55:09;103339.59;;;13.93;100.00
35806;BME280;21925;44.608;11.580;2022-11-11T03:57:57;103340.41;;;13.93;100.00
35806;BME280;21925;44.608;11.580;2022-11-11T04:00:49;103339.16;;;13.86;100.00
35806;BME280;21925;44.608;11.580;2022-11-11T04:03:37;103340.78;;;13.73;100.00
35806;BME280;21925;44.608;11.580;2022-11-11T04:06:46;103350.63;;;13.79;100.00
35806;BME280;21925;44.608;11.580;2022-11-11T04:09:50;103322.84;;;13.76;100.00
35806;BME280;21925;44.608;11.580;2022-11-11T04:12:54;103328.97;;;13.73;100.00
35806;BME280;21925;44.608;11.580;2022-11-11T04:16:10;103337.84;;;13.83;100.00
35806;BME280;21925;44.608;11.580;2022-11-11T04:19:09;103355.63;;;14.04;100.00
35806;BME280;21925;44.608;11.580;2022-11-11T04:22:12;103361.34;;;13.94;100.00
35806;BME280;21925;44.608;11.580;2022-11-11T04:25:03;103335.09;;;13.83;100.00
35806;BME280;21925;44.608;11.580;2022-11-11T04:28:12;103356.75;;;13.90;100.00
35806;BME280;21925;44.608;11.580;2022-11-11T04:31:16;103322.53;;;13.64;100.00
35806;BME280;21925;44.608;11.580;2022-11-11T04:34:08;103361.66;;;13.79;100.00
35806;BME280;21925;44.608;11.580;2022-11-11T04:37:13;103352.06;;;13.63;100.00
35806;BME280;21925;44.608;11.580;2022-11-11T04:43:25;103359.97;;;13.52;100.00
35806;BME280;21925;44.608;11.580;2022-11-11T04:46:16;103369.09;;;13.52;100.00
35806;BME280;21925;44.608;11.580;2022-11-11T04:49:05;103381.03;;;13.48;100.00
35806;BME280;21925;44.608;11.580;2022-11-11T04:51:50;103378.25;;;13.48;100.00
35806;BME280;21925;44.608;11.580;2022-11-11T04:54:55;103376.50;;;13.38;100.00
35806;BME280;21925;44.608;11.580;2022-11-11T04:57:59;103373.84;;;13.33;100.00
35806;BME280;21925;44.608;11.580;2022-11-11T05:00:44;103380.66;;;13.36;100.00
35806;BME280;21925;44.608;11.580;2022-11-11T05:03:32;103366.25;;;13.25;100.00
35806;BME280;21925;44.608;11.580;2022-11-11T05:06:23;103376.28;;;13.35;100.00
35806;BME280;21925;44.608;11.580;2022-11-11T05:09:35;103385.28;;;13.40;100.00
35806;BME280;21925;44.608;11.580;2022-11-11T05:12:30;103384.66;;;13.30;100.00
35806;BME280;21925;44.608;11.580;2022-11-11T05:15:15;103371.34;;;13.18;100.00
35806;BME280;21925;44.608;11.580;2022-11-11T05:18:49;103388.84;;;13.09;100.00
35806;BME280;21925;44.608;11.580;2022-11-11T05:22:39;103377.91;;;13.04;100.00
35806;BME280;21925;44.608;11.580;2022-11-11T05:25:51;103382.47;;;12.95;100.00
35806;BME280;21925;44.608;11.580;2022-11-11T05:28:37;103388.50;;;12.97;100.00
35806;BME280;21925;44.608;11.580;2022-11-11T05:31:27;103392.47;;;12.91;100.00
35806;BME280;21925;44.608;11.580;2022-11-11T05:34:16;103401.16;;;12.98;100.00
35806;BME280;21925;44.608;11.580;2022-11-11T05:37:05;103373.00;;;12.82;100.00
35806;BME280;21925;44.608;11.580;2022-11-11T05:40:12;103386.97;;;12.86;100.00
35806;BME280;21925;44.608;11.580;2022-11-11T05:43:02;103382.03;;;12.88;100.00
35806;BME280;21925;44.608;11.580;2022-11-11T05:46:48;103393.09;;;12.83;100.00
35806;BME280;21925;44.608;11.580;2022-11-11T05:49:35;103393.91;;;12.83;100.00
35806;BME280;21925;44.608;11.580;2022-11-11T05:52:31;103396.88;;;12.87;100.00
35806;BME280;21925;44.608;11.580;2022-11-11T05:55:17;103404.13;;;13.01;100.00
35806;BME280;21925;44.608;11.580;2022-11-11T05:58:16;103404.78;;;13.12;100.00
35806;BME280;21925;44.608;11.580;2022-11-11T06:04:18;103408.13;;;13.09;100.00
35806;BME280;21925;44.608;11.580;2022-11-11T06:07:06;103402.13;;;13.07;100.00
35806;BME280;21925;44.608;11.580;2022-11-11T06:09:52;103413.56;;;13.14;100.00
35806;BME280;21925;44.608;11.580;2022-11-11T06:13:00;103410.66;;;13.05;100.00
35806;BME280;21925;44.608;11.580;2022-11-11T06:15:59;103426.09;;;12.88;100.00
35806;BME280;21925;44.608;11.580;2022-11-11T06:18:57;103359.53;;;12.44;100.00
35806;BME280;21925;44.608;11.580;2022-11-11T06:21:44;103364.44;;;12.47;100.00
35806;BME280;21925;44.608;11.580;2022-11-11T06:24:51;103418.38;;;12.85;100.00
35806;BME280;21925;44.608;11.580;2022-11-11T06:28:08;103423.34;;;12.88;100.00
35806;BME280;21925;44.608;11.580;2022-11-11T06:31:35;103425.16;;;12.74;100.00
35806;BME280;21925;44.608;11.580;2022-11-11T06:34:19;103422.84;;;12.63;100.00
35806;BME280;21925;44.608;11.580;2022-11-11T06:37:16;103418.50;;;12.57;100.00
35806;BME280;21925;44.608;11.580;2022-11-11T06:40:03;103420.16;;;12.58;100.00
35806;BME280;21925;44.608;11.580;2022-11-11T06:42:53;103413.31;;;12.55;100.00
35806;BME280;21925;44.608;11.580;2022-11-11T06:45:40;103432.44;;;12.65;100.00
35806;BME280;21925;44.608;11.580;2022-11-11T06:48:39;103428.59;;;12.66;100.00
35806;BME280;21925;44.608;11.580;2022-11-11T06:51:45;103432.41;;;12.88;100.00
35806;BME280;21925;44.608;11.580;2022-11-11T06:54:33;103448.09;;;13.06;100.00
35806;BME280;21925;44.608;11.580;2022-11-11T06:57:22;103440.75;;;13.20;100.00
35806;BME280;21925;44.608;11.580;2022-11-11T07:00:11;103451.16;;;13.23;100.00
35806;BME280;21925;44.608;11.580;2022-11-11T07:03:12;103443.41;;;13.25;100.00
35806;BME280;21925;44.608;11.580;2022-11-11T07:06:03;103445.41;;;13.20;100.00
35806;BME280;21925;44.608;11.580;2022-11-11T07:08:54;103441.41;;;13.31;100.00
35806;BME280;21925;44.608;11.580;2022-11-11T07:11:45;103464.03;;;13.28;100.00
35806;BME280;21925;44.608;11.580;2022-11-11T07:14:40;103455.03;;;13.22;100.00
35806;BME280;21925;44.608;11.580;2022-11-11T07:17:25;103473.84;;;13.34;100.00
35806;BME280;21925;44.608;11.580;2022-11-11T07:20:17;103478.09;;;13.45;100.00
35806;BME280;21925;44.608;11.580;2022-11-11T07:23:13;103481.38;;;13.47;100.00
35806;BME280;21925;44.608;11.580;2022-11-11T07:26:00;103466.47;;;13.29;100.00
35806;BME280;21925;44.608;11.580;2022-11-11T07:28:46;103437.69;;;13.22;100.00
35806;BME280;21925;44.608;11.580;2022-11-11T07:31:32;103484.03;;;13.52;100.00
35806;BME280;21925;44.608;11.580;2022-11-11T07:34:16;103490.97;;;13.49;100.00
35806;BME280;21925;44.608;11.580;2022-11-11T07:37:07;103488.81;;;13.46;100.00
35806;BME280;21925;44.608;11.580;2022-11-11T07:39:55;103487.91;;;13.51;100.00
35806;BME280;21925;44.608;11.580;2022-11-11T07:42:53;103506.59;;;13.53;100.00
35806;BME280;21925;44.608;11.580;2022-11-11T07:45:39;103497.06;;;13.46;100.00
35806;BME280;21925;44.608;11.580;2022-11-11T07:48:23;103467.16;;;13.40;100.00
35806;BME280;21925;44.608;11.580;2022-11-11T07:51:10;103502.56;;;13.64;100.00
35806;BME280;21925;44.608;11.580;2022-11-11T07:54:07;103513.66;;;13.59;100.00
35806;BME280;21925;44.608;11.580;2022-11-11T07:56:57;103518.81;;;13.66;100.00
35806;BME280;21925;44.608;11.580;2022-11-11T07:59:48;103520.88;;;13.74;100.00
35806;BME280;21925;44.608;11.580;2022-11-11T08:02:38;103508.94;;;13.78;100.00
35806;BME280;21925;44.608;11.580;2022-11-11T08:05:24;103509.09;;;13.68;100.00
35806;BME280;21925;44.608;11.580;2022-11-11T08:08:14;103514.94;;;13.67;100.00
35806;BME280;21925;44.608;11.580;2022-11-11T08:11:00;103493.09;;;13.70;100.00
35806;BME280;21925;44.608;11.580;2022-11-11T08:13:54;103487.00;;;13.55;100.00
35806;BME280;21925;44.608;11.580;2022-11-11T08:16:47;103516.00;;;13.84;100.00
35806;BME280;21925;44.608;11.580;2022-11-11T08:19:46;103491.97;;;13.71;100.00
35806;BME280;21925;44.608;11.580;2022-11-11T08:22:37;103524.28;;;13.84;100.00
35806;BME280;21925;44.608;11.580;2022-11-11T08:25:22;103540.69;;;14.08;100.00
35806;BME280;21925;44.608;11.580;2022-11-11T08:28:07;103462.41;;;13.58;100.00
35806;BME280;21925;44.608;11.580;2022-11-11T08:30:52;103520.03;;;13.92;100.00
35806;BME280;21925;44.608;11.580;2022-11-11T08:33:40;103512.16;;;13.99;100.00
35806;BME280;21925;44.608;11.580;2022-11-11T08:36:36;103511.25;;;14.03;100.00
35806;BME280;21925;44.608;11.580;2022-11-11T08:39:30;103533.53;;;14.07;100.00
35806;BME280;21925;44.608;11.580;2022-11-11T08:42:17;103546.34;;;14.16;100.00
35806;BME280;21925;44.608;11.580;2022-11-11T08:45:05;103540.66;;;14.26;100.00
35806;BME280;21925;44.608;11.580;2022-11-11T08:47:58;103547.53;;;14.42;100.00
35806;BME280;21925;44.608;11.580;2022-11-11T08:50:50;103539.97;;;14.47;100.00
35806;BME280;21925;44.608;11.580;2022-11-11T08:53:37;103545.69;;;14.51;100.00
35806;BME280;21925;44.608;11.580;2022-11-11T08:56:24;103548.44;;;14.51;100.00
35806;BME280;21925;44.608;11.580;2022-11-11T08:59:12;103551.94;;;14.56;100.00
35806;BME280;21925;44.608;11.580;2022-11-11T09:02:32;103541.28;;;14.63;100.00
35806;BME280;21925;44.608;11.580;2022-11-11T09:05:22;103504.28;;;14.37;100.00
35806;BME280;21925;44.608;11.580;2022-11-11T09:08:10;103515.31;;;14.51;100.00
35806;BME280;21925;44.608;11.580;2022-11-11T09:11:07;103505.91;;;14.52;100.00
35806;BME280;21925;44.608;11.580;2022-11-11T09:13:54;103509.47;;;14.66;100.00
35806;BME280;21925;44.608;11.580;2022-11-11T09:16:40;103557.22;;;15.07;100.00
35806;BME280;21925;44.608;11.580;2022-11-11T09:19:30;103550.59;;;14.94;100.00
35806;BME280;21925;44.608;11.580;2022-11-11T09:22:16;103510.91;;;14.77;100.00
35806;BME280;21925;44.608;11.580;2022-11-11T09:25:10;103562.94;;;14.97;100.00
35806;BME280;21925;44.608;11.580;2022-11-11T09:27:57;103555.31;;;14.94;100.00
35806;BME280;21925;44.608;11.580;2022-11-11T09:30:42;103539.84;;;14.93;100.00
35806;BME280;21925;44.608;11.580;2022-11-11T09:33:28;103572.88;;;15.24;100.00
35806;BME280;21925;44.608;11.580;2022-11-11T09:36:15;103569.16;;;15.42;100.00
35806;BME280;21925;44.608;11.580;2022-11-11T09:39:05;103563.63;;;15.42;100.00
35806;BME280;21925;44.608;11.580;2022-11-11T09:42:07;103570.56;;;15.40;100.00
35806;BME280;21925;44.608;11.580;2022-11-11T09:51:20;103568.94;;;15.39;100.00
35806;BME280;21925;44.608;11.580;2022-11-11T09:54:16;103556.59;;;15.80;100.00
35806;BME280;21925;44.608;11.580;2022-11-11T09:57:34;103551.03;;;16.02;100.00
35806;BME280;21925;44.608;11.580;2022-11-11T10:00:22;103545.25;;;16.12;100.00
35806;BME280;21925;44.608;11.580;2022-11-11T10:03:15;103547.06;;;16.16;100.00
35806;BME280;21925;44.608;11.580;2022-11-11T10:12:14;103526.91;;;17.86;100.00
35806;BME280;21925;44.608;11.580;2022-11-11T10:15:00;103481.06;;;17.55;100.00
35806;BME280;21925;44.608;11.580;2022-11-11T10:18:01;103520.06;;;17.84;100.00
35806;BME280;21925;44.608;11.580;2022-11-11T10:20:53;103526.09;;;17.69;100.00
35806;BME280;21925;44.608;11.580;2022-11-11T10:23:39;103479.97;;;17.48;100.00
35806;BME280;21925;44.608;11.580;2022-11-11T10:26:47;103508.47;;;17.65;100.00
35806;BME280;21925;44.608;11.580;2022-11-11T10:29:41;103511.56;;;17.72;100.00
35806;BME280;21925;44.608;11.580;2022-11-11T10:32:32;103504.19;;;17.93;100.00
35806;BME280;21925;44.608;11.580;2022-11-11T10:35:23;103485.63;;;17.68;100.00
35806;BME280;21925;44.608;11.580;2022-11-11T10:41:38;103504.53;;;17.83;100.00
35806;BME280;21925;44.608;11.580;2022-11-11T10:44:31;103501.44;;;17.93;100.00
35806;BME280;21925;44.608;11.580;2022-11-11T10:47:50;103446.41;;;17.78;100.00
35806;BME280;21925;44.608;11.580;2022-11-11T10:50:46;103475.59;;;18.01;100.00
35806;BME280;21925;44.608;11.580;2022-11-11T11:00:04;103447.53;;;17.85;100.00
35806;BME280;21925;44.608;11.580;2022-11-11T11:03:03;103458.88;;;18.09;100.00
35806;BME280;21925;44.608;11.580;2022-11-11T11:06:04;103454.22;;;18.39;100.00
35806;BME280;21925;44.608;11.580;2022-11-11T11:12:19;103443.00;;;18.27;100.00
35806;BME280;21925;44.608;11.580;2022-11-11T11:15:15;103447.50;;;18.40;100.00
35806;BME280;21925;44.608;11.580;2022-11-11T11:18:06;103440.03;;;18.32;100.00
35806;BME280;21925;44.608;11.580;2022-11-11T11:23:49;103416.66;;;18.33;100.00
35806;BME280;21925;44.608;11.580;2022-11-11T11:26:49;103440.03;;;18.60;100.00
35806;BME280;21925;44.608;11.580;2022-11-11T11:32:56;103433.56;;;18.48;100.00
35806;BME280;21925;44.608;11.580;2022-11-11T11:35:43;103428.63;;;18.53;100.00
35806;BME280;21925;44.608;11.580;2022-11-11T11:38:49;103425.75;;;18.70;100.00
35806;BME280;21925;44.608;11.580;2022-11-11T11:44:27;103429.00;;;18.72;100.00
35806;BME280;21925;44.608;11.580;2022-11-11T11:50:39;103424.50;;;18.80;100.00
35806;BME280;21925;44.608;11.580;2022-11-11T11:54:13;103425.34;;;19.01;100.00
35806;BME280;21925;44.608;11.580;2022-11-11T11:57:03;103417.94;;;18.84;100.00
35806;BME280;21925;44.608;11.580;2022-11-11T12:00:15;103413.63;;;18.95;100.00
35806;BME280;21925;44.608;11.580;2022-11-11T12:03:33;103415.84;;;19.02;100.00
35806;BME280;21925;44.608;11.580;2022-11-11T12:12:54;103401.53;;;18.71;100.00
35806;BME280;21925;44.608;11.580;2022-11-11T12:25:17;103382.50;;;18.81;100.00
35806;BME280;21925;44.608;11.580;2022-11-11T12:35:04;103391.38;;;18.75;100.00
35806;BME280;21925;44.608;11.580;2022-11-11T12:44:08;103370.19;;;18.82;100.00
35806;BME280;21925;44.608;11.580;2022-11-11T12:47:35;103390.41;;;18.91;100.00
35806;BME280;21925;44.608;11.580;2022-11-11T13:00:08;103397.06;;;18.99;100.00
35806;BME280;21925;44.608;11.580;2022-11-11T13:12:49;103396.78;;;18.92;100.00
35806;BME280;21925;44.608;11.580;2022-11-11T13:15:46;103392.44;;;18.82;100.00
35806;BME280;21925;44.608;11.580;2022-11-11T13:18:50;103389.00;;;18.65;100.00
35806;BME280;21925;44.608;11.580;2022-11-11T13:21:46;103391.09;;;18.68;100.00
35806;BME280;21925;44.608;11.580;2022-11-11T13:24:35;103396.53;;;18.64;100.00
35806;BME280;21925;44.608;11.580;2022-11-11T13:27:41;103387.31;;;18.72;100.00
35806;BME280;21925;44.608;11.580;2022-11-11T13:33:33;103383.28;;;18.61;100.00
35806;BME280;21925;44.608;11.580;2022-11-11T13:36:26;103334.75;;;18.39;100.00
35806;BME280;21925;44.608;11.580;2022-11-11T13:39:31;103398.47;;;18.64;100.00
35806;BME280;21925;44.608;11.580;2022-11-11T13:42:54;103394.53;;;18.65;100.00
35806;BME280;21925;44.608;11.580;2022-11-11T13:45:43;103401.59;;;18.62;100.00
35806;BME280;21925;44.608;11.580;2022-11-11T13:48:42;103399.09;;;18.69;100.00
35806;BME280;21925;44.608;11.580;2022-11-11T13:51:38;103403.56;;;18.82;100.00
35806;BME280;21925;44.608;11.580;2022-11-11T13:57:50;103409.19;;;18.53;100.00
35806;BME280;21925;44.608;11.580;2022-11-11T14:00:36;103381.50;;;18.37;100.00
35806;BME280;21925;44.608;11.580;2022-11-11T14:09:04;103397.13;;;18.21;100.00
35806;BME280;21925;44.608;11.580;2022-11-11T14:12:23;103398.44;;;18.15;100.00
35806;BME280;21925;44.608;11.580;2022-11-11T14:15:43;103400.91;;;18.08;100.00
35806;BME280;21925;44.608;11.580;2022-11-11T14:18:52;103399.56;;;18.14;100.00
35806;BME280;21925;44.608;11.580;2022-11-11T14:21:52;103383.22;;;18.21;100.00
35806;BME280;21925;44.608;11.580;2022-11-11T14:24:45;103382.78;;;18.10;100.00
35806;BME280;21925;44.608;11.580;2022-11-11T14:27:55;103389.41;;;18.18;100.00
35806;BME280;21925;44.608;11.580;2022-11-11T14:30:41;103394.00;;;18.22;100.00
35806;BME280;21925;44.608;11.580;2022-11-11T14:37:01;103380.63;;;18.16;100.00
35806;BME280;21925;44.608;11.580;2022-11-11T14:39:52;103379.84;;;18.07;100.00
35806;BME280;21925;44.608;11.580;2022-11-11T14:42:44;103374.78;;;18.09;100.00
35806;BME280;21925;44.608;11.580;2022-11-11T14:57:54;103377.81;;;17.87;100.00
35806;BME280;21925;44.608;11.580;2022-11-11T15:00:45;103376.56;;;17.76;100.00
35806;BME280;21925;44.608;11.580;2022-11-11T15:13:08;103380.34;;;17.63;100.00
35806;BME280;21925;44.608;11.580;2022-11-11T15:16:15;103347.63;;;17.31;100.00
35806;BME280;21925;44.608;11.580;2022-11-11T15:23:02;103370.59;;;17.49;100.00
35806;BME280;21925;44.608;11.580;2022-11-11T15:38:24;103372.13;;;16.95;100.00
35806;BME280;21925;44.608;11.580;2022-11-11T15:41:41;103371.16;;;16.91;100.00
35806;BME280;21925;44.608;11.580;2022-11-11T15:44:33;103370.66;;;16.81;100.00
35806;BME280;21925;44.608;11.580;2022-11-11T15:47:38;103385.47;;;16.60;100.00
35806;BME280;21925;44.608;11.580;2022-11-11T15:53:12;103379.78;;;16.56;100.00
35806;BME280;21925;44.608;11.580;2022-11-11T15:56:01;103377.28;;;16.29;100.00
35806;BME280;21925;44.608;11.580;2022-11-11T15:58:56;103375.00;;;16.31;100.00
35806;BME280;21925;44.608;11.580;2022-11-11T16:01:40;103389.19;;;16.30;100.00
35806;BME280;21925;44.608;11.580;2022-11-11T16:04:29;103387.38;;;16.34;100.00
35806;BME280;21925;44.608;11.580;2022-11-11T16:07:30;103354.34;;;15.90;100.00
35806;BME280;21925;44.608;11.580;2022-11-11T16:10:38;103378.75;;;15.96;100.00
35806;BME280;21925;44.608;11.580;2022-11-11T16:13:40;103386.88;;;15.85;100.00
35806;BME280;21925;44.608;11.580;2022-11-11T16:16:39;103376.69;;;15.72;100.00
35806;BME280;21925;44.608;11.580;2022-11-11T16:19:32;103383.50;;;15.57;100.00
35806;BME280;21925;44.608;11.580;2022-11-11T16:25:42;103383.03;;;15.33;100.00
35806;BME280;21925;44.608;11.580;2022-11-11T16:28:45;103385.28;;;15.31;100.00
35806;BME280;21925;44.608;11.580;2022-11-11T16:31:49;103378.31;;;15.20;100.00
35806;BME280;21925;44.608;11.580;2022-11-11T16:34:40;103381.22;;;15.15;100.00
35806;BME280;21925;44.608;11.580;2022-11-11T16:37:58;103386.75;;;15.15;100.00
35806;BME280;21925;44.608;11.580;2022-11-11T16:40:50;103395.03;;;15.15;100.00
35806;BME280;21925;44.608;11.580;2022-11-11T16:43:42;103390.03;;;15.17;100.00
35806;BME280;21925;44.608;11.580;2022-11-11T16:46:54;103376.22;;;15.17;100.00
35806;BME280;21925;44.608;11.580;2022-11-11T16:49:40;103390.13;;;15.13;100.00
35806;BME280;21925;44.608;11.580;2022-11-11T16:53:00;103382.34;;;15.14;100.00
35806;BME280;21925;44.608;11.580;2022-11-11T16:56:40;103391.63;;;15.18;100.00
35806;BME280;21925;44.608;11.580;2022-11-11T16:59:06;103393.03;;;15.08;100.00
35806;BME280;21925;44.608;11.580;2022-11-11T17:01:54;103392.38;;;15.11;100.00
35806;BME280;21925;44.608;11.580;2022-11-11T17:04:54;103392.16;;;14.99;100.00
35806;BME280;21925;44.608;11.580;2022-11-11T17:07:44;103404.31;;;14.98;100.00
35806;BME280;21925;44.608;11.580;2022-11-11T17:10:40;103398.00;;;14.97;100.00
35806;BME280;21925;44.608;11.580;2022-11-11T17:13:33;103408.22;;;14.97;100.00
35806;BME280;21925;44.608;11.580;2022-11-11T17:16:29;103430.78;;;15.12;100.00
35806;BME280;21925;44.608;11.580;2022-11-11T17:19:20;103426.63;;;15.01;100.00
35806;BME280;21925;44.608;11.580;2022-11-11T17:22:15;103380.00;;;14.64;100.00
35806;BME280;21925;44.608;11.580;2022-11-11T17:25:17;103426.06;;;14.91;100.00
35806;BME280;21925;44.608;11.580;2022-11-11T17:28:02;103389.66;;;14.40;100.00
35806;BME280;21925;44.608;11.580;2022-11-11T17:30:47;103432.28;;;14.34;100.00
35806;BME280;21925;44.608;11.580;2022-11-11T17:33:38;103426.75;;;14.61;100.00